Time;durP1;ratioP1;P1;durP2;ratioP2;P2;SDS_P1;SDS_P2;PMS_P1;PMS_P2;Temp;Humidity;BMP_temperature;BMP_pressure;BME280_temperature;BME280_humidity;BME280_pressure;Samples;Min_cycle;Max_cycle;Signal;HPM_P1;HPM_P2
2023/04/22 00:02:06;;;;;;;4.63;4.23;;;12.50;95.80;;;;;;5033150;28;20175;-72
2023/04/22 00:04:32;;;;;;;8.17;5.10;;;12.50;95.50;;;;;;5026684;28;20411;-72
2023/04/22 00:06:58;;;;;;;5.40;4.90;;;12.40;95.60;;;;;;5025591;28;20411;-72
2023/04/22 00:09:24;;;;;;;6.70;5.40;;;12.40;95.70;;;;;;5032482;28;20432;-71
2023/04/22 00:11:50;;;;;;;6.07;5.40;;;12.40;95.80;;;;;;5014774;28;20206;-70
2023/04/22 00:14:16;;;;;;;5.73;4.50;;;12.30;96.00;;;;;;5031099;28;20178;-70
2023/04/22 00:16:41;;;;;;;7.17;4.77;;;12.30;96.00;;;;;;5022239;28;20415;-71
2023/04/22 00:19:07;;;;;;;4.93;4.00;;;12.30;96.00;;;;;;5017476;28;20208;-70
2023/04/22 00:21:33;;;;;;;6.13;5.53;;;12.30;96.10;;;;;;5023660;28;20526;-70
2023/04/22 00:23:58;;;;;;;6.20;5.60;;;12.30;96.10;;;;;;5017231;28;20190;-72
2023/04/22 00:26:24;;;;;;;5.60;5.10;;;12.20;96.20;;;;;;5015249;28;20183;-71
2023/04/22 00:28:50;;;;;;;6.53;5.27;;;12.20;96.20;;;;;;5021703;28;20740;-71
2023/04/22 00:31:15;;;;;;;6.03;4.47;;;12.20;96.30;;;;;;5017115;28;20210;-70
2023/04/22 00:33:41;;;;;;;10.10;5.87;;;12.10;96.20;;;;;;5025912;28;20184;-71
2023/04/22 00:36:07;;;;;;;5.77;4.33;;;12.10;96.40;;;;;;5025186;28;20377;-71
2023/04/22 00:38:32;;;;;;;6.40;5.13;;;12.10;96.40;;;;;;5023312;28;20212;-69
2023/04/22 00:40:58;;;;;;;6.23;5.63;;;12.10;96.40;;;;;;5022960;28;20203;-70
2023/04/22 00:43:24;;;;;;;8.70;5.30;;;12.00;96.50;;;;;;5005405;28;20699;-71
2023/04/22 00:45:49;;;;;;;9.03;5.90;;;12.10;96.50;;;;;;5017071;28;20918;-72
2023/04/22 00:48:15;;;;;;;4.90;4.50;;;12.00;96.50;;;;;;5023173;28;20233;-70
2023/04/22 00:50:41;;;;;;;8.03;5.13;;;12.00;96.60;;;;;;5009141;28;20232;-70
2023/04/22 00:53:07;;;;;;;8.03;5.60;;;12.00;96.90;;;;;;5023110;28;20186;-71
2023/04/22 00:55:33;;;;;;;7.90;5.37;;;12.00;96.50;;;;;;5022307;28;20681;-71
2023/04/22 00:58:01;;;;;;;7.40;5.60;;;12.00;96.50;;;;;;5023189;28;20222;-70
2023/04/22 01:00:27;;;;;;;7.40;5.47;;;12.00;96.50;;;;;;5027111;28;20422;-71
2023/04/22 01:02:54;;;;;;;9.80;5.50;;;12.00;96.40;;;;;;5029631;28;20408;-72
2023/04/22 01:05:20;;;;;;;7.33;6.30;;;11.90;96.50;;;;;;5026089;28;20473;-70
2023/04/22 01:07:46;;;;;;;5.70;5.20;;;11.90;96.60;;;;;;5020559;28;20787;-70
2023/04/22 01:10:11;;;;;;;6.80;5.53;;;12.00;96.60;;;;;;5003977;28;20422;-72
2023/04/22 01:12:37;;;;;;;6.07;5.47;;;11.90;96.60;;;;;;5022866;28;20180;-70
2023/04/22 01:15:03;;;;;;;8.10;5.47;;;11.90;96.70;;;;;;5028287;28;20240;-71
2023/04/22 01:17:30;;;;;;;7.30;5.30;;;11.90;96.60;;;;;;5017430;28;20510;-71
2023/04/22 01:19:57;;;;;;;8.07;6.57;;;11.80;96.70;;;;;;5022649;28;20410;-70
2023/04/22 01:22:26;;;;;;;8.30;6.20;;;11.80;96.90;;;;;;5019111;28;20976;-73
2023/04/22 01:24:53;;;;;;;6.50;5.70;;;11.80;96.90;;;;;;5027364;28;20418;-71
2023/04/22 01:27:20;;;;;;;6.87;4.93;;;11.80;97.00;;;;;;5026262;28;20433;-69
2023/04/22 01:29:46;;;;;;;10.03;5.00;;;11.70;97.00;;;;;;5022848;28;20556;-72
2023/04/22 01:32:12;;;;;;;7.50;6.10;;;11.70;97.50;;;;;;5025140;28;20418;-70
2023/04/22 01:34:38;;;;;;;7.73;4.97;;;11.70;97.20;;;;;;5022544;28;20464;-71
2023/04/22 01:37:05;;;;;;;7.70;6.00;;;11.70;97.40;;;;;;5020918;28;20206;-71
2023/04/22 01:39:30;;;;;;;8.20;5.53;;;11.70;97.50;;;;;;5026628;28;20315;-71
2023/04/22 01:41:57;;;;;;;6.97;5.00;;;11.60;97.60;;;;;;5021460;28;20506;-70
2023/04/22 01:44:23;;;;;;;7.70;6.50;;;11.60;97.60;;;;;;5008254;28;20214;-70
2023/04/22 01:46:48;;;;;;;8.43;5.63;;;11.60;97.70;;;;;;5028055;28;20552;-70
2023/04/22 01:49:14;;;;;;;9.27;5.70;;;11.50;98.00;;;;;;5022444;28;20211;-70
2023/04/22 01:51:40;;;;;;;6.20;5.37;;;11.50;97.90;;;;;;5021910;28;20187;-72
2023/04/22 01:54:05;;;;;;;10.60;5.40;;;11.40;97.90;;;;;;5009961;28;20195;-71
2023/04/22 01:56:31;;;;;;;6.63;4.93;;;11.40;98.00;;;;;;5026831;28;20246;-71
2023/04/22 01:58:56;;;;;;;6.10;5.40;;;11.40;98.10;;;;;;5029098;28;20195;-72
2023/04/22 02:01:22;;;;;;;11.83;5.80;;;11.30;98.30;;;;;;5024925;28;20179;-70
2023/04/22 02:03:47;;;;;;;8.00;6.40;;;11.30;98.50;;;;;;5020706;28;20182;-70
2023/04/22 02:06:13;;;;;;;6.90;6.20;;;11.30;98.50;;;;;;5021330;28;20189;-71
2023/04/22 02:08:39;;;;;;;6.17;5.57;;;11.20;98.50;;;;;;5030104;28;20209;-69
2023/04/22 02:11:04;;;;;;;5.37;4.80;;;11.30;98.60;;;;;;5025046;28;20187;-70
2023/04/22 02:13:37;;;;;;;7.60;5.37;;;11.30;98.60;;;;;;5025942;28;20191;-70
2023/04/22 02:16:03;;;;;;;7.80;5.67;;;11.20;98.70;;;;;;5031637;28;20195;-70
2023/04/22 02:18:29;;;;;;;7.90;5.77;;;11.20;98.80;;;;;;5028393;28;20990;-69
2023/04/22 02:20:55;;;;;;;6.10;5.40;;;11.10;98.80;;;;;;5028794;28;20433;-70
2023/04/22 02:23:21;;;;;;;6.10;5.40;;;11.10;99.00;;;;;;5026040;28;20280;-70
2023/04/22 02:25:51;;;;;;;7.93;5.70;;;11.10;98.90;;;;;;5024683;28;20186;-70
2023/04/22 02:28:17;;;;;;;7.80;5.67;;;11.10;98.90;;;;;;5027235;28;20495;-71
2023/04/22 02:30:44;;;;;;;7.67;4.83;;;11.10;98.90;;;;;;5025454;28;20888;-70
2023/04/22 02:33:10;;;;;;;6.57;5.37;;;11.10;98.90;;;;;;5027765;28;20766;-70
2023/04/22 02:35:36;;;;;;;8.07;6.77;;;11.10;98.90;;;;;;5030586;28;20512;-70
2023/04/22 02:38:01;;;;;;;10.33;6.27;;;11.10;98.80;;;;;;5022379;28;20674;-69
2023/04/22 02:40:27;;;;;;;8.77;6.60;;;11.10;98.90;;;;;;5029191;28;20186;-70
2023/04/22 02:42:53;;;;;;;7.00;6.20;;;11.10;98.90;;;;;;5023444;28;20333;-71
2023/04/22 02:45:18;;;;;;;6.23;5.63;;;11.10;98.70;;;;;;5027334;28;20642;-69
2023/04/22 02:47:44;;;;;;;7.10;6.40;;;11.10;98.80;;;;;;5024436;28;20650;-70
2023/04/22 02:50:09;;;;;;;12.80;5.77;;;11.20;98.90;;;;;;5006996;28;20183;-70
2023/04/22 02:52:35;;;;;;;6.20;5.57;;;11.20;98.70;;;;;;5029525;28;20662;-71
2023/04/22 02:55:01;;;;;;;10.40;6.13;;;11.10;98.80;;;;;;5022141;28;20184;-71
2023/04/22 02:57:26;;;;;;;9.10;5.43;;;11.10;98.80;;;;;;5027076;28;20180;-70
2023/04/22 02:59:52;;;;;;;7.53;5.30;;;11.00;98.90;;;;;;5026947;28;20182;-70
2023/04/22 03:02:18;;;;;;;6.70;5.23;;;11.00;98.90;;;;;;5027815;28;20203;-70
2023/04/22 03:04:43;;;;;;;6.70;6.03;;;11.00;99.00;;;;;;5024353;28;20622;-70
2023/04/22 03:07:09;;;;;;;6.80;5.40;;;11.00;99.00;;;;;;5021509;28;20694;-74
2023/04/22 03:09:35;;;;;;;7.73;5.80;;;11.00;98.90;;;;;;5027425;28;20658;-71
2023/04/22 03:12:01;;;;;;;5.80;5.20;;;11.00;99.00;;;;;;5003920;28;20415;-70
2023/04/22 03:14:27;;;;;;;5.73;4.70;;;10.90;99.10;;;;;;5027698;28;20848;-71
2023/04/22 03:16:53;;;;;;;6.67;5.17;;;10.90;99.10;;;;;;5023197;28;20418;-70
2023/04/22 03:19:18;;;;;;;6.60;5.87;;;10.90;99.20;;;;;;5026587;28;20290;-70
2023/04/22 03:21:44;;;;;;;6.10;4.97;;;10.80;99.20;;;;;;5026889;28;20183;-71
2023/04/22 03:24:09;;;;;;;8.30;6.00;;;10.80;99.20;;;;;;5027223;28;20602;-71
2023/04/22 03:26:35;;;;;;;11.30;6.37;;;10.80;99.40;;;;;;5026918;28;20175;-69
2023/04/22 03:29:01;;;;;;;7.50;5.80;;;10.80;99.80;;;;;;5029437;28;20562;-69
2023/04/22 03:31:26;;;;;;;7.33;6.33;;;10.80;99.50;;;;;;5021247;28;20183;-71
2023/04/22 03:33:52;;;;;;;9.43;5.60;;;10.70;99.50;;;;;;5030339;28;20199;-70
2023/04/22 03:36:17;;;;;;;11.03;6.80;;;10.70;99.70;;;;;;5025320;28;20266;-70
2023/04/22 03:38:43;;;;;;;7.20;5.80;;;10.70;99.80;;;;;;5028217;28;20200;-70
2023/04/22 03:41:09;;;;;;;7.33;5.37;;;10.70;99.90;;;;;;5027108;28;20251;-69
2023/04/22 03:43:34;;;;;;;6.80;5.87;;;10.60;99.90;;;;;;5027214;28;20180;-70
2023/04/22 03:46:00;;;;;;;7.20;5.87;;;10.60;99.90;;;;;;5029219;28;20208;-70
2023/04/22 03:48:27;;;;;;;6.70;5.33;;;10.50;99.90;;;;;;5023858;28;20219;-71
2023/04/22 03:50:53;;;;;;;7.20;6.53;;;10.50;99.90;;;;;;5024816;28;20603;-70
2023/04/22 03:53:19;;;;;;;7.20;5.77;;;10.50;99.90;;;;;;5024909;28;20419;-72
2023/04/22 03:55:44;;;;;;;8.60;6.20;;;10.40;99.90;;;;;;5021085;28;20251;-71
2023/04/22 03:58:10;;;;;;;7.73;6.00;;;10.40;99.90;;;;;;5026619;28;20212;-70
2023/04/22 04:00:36;;;;;;;8.03;7.20;;;10.40;99.90;;;;;;5023639;28;20227;-70
2023/04/22 04:03:01;;;;;;;10.20;6.33;;;10.40;99.90;;;;;;5028508;28;20179;-71
2023/04/22 04:05:27;;;;;;;7.20;6.10;;;10.30;99.90;;;;;;5008304;28;20176;-71
2023/04/22 04:07:53;;;;;;;7.30;6.27;;;10.30;99.90;;;;;;5029864;28;20237;-70
2023/04/22 04:10:18;;;;;;;10.60;6.70;;;10.30;99.90;;;;;;5026016;28;20498;-70
2023/04/22 04:12:44;;;;;;;9.27;6.80;;;10.30;99.90;;;;;;5020705;28;20262;-70
2023/04/22 04:15:10;;;;;;;9.20;7.10;;;10.30;99.90;;;;;;5008612;28;20264;-70
2023/04/22 04:17:36;;;;;;;9.40;6.50;;;10.20;99.90;;;;;;5019402;28;20192;-70
2023/04/22 04:20:01;;;;;;;9.90;7.07;;;10.20;99.90;;;;;;5027928;28;20419;-70
2023/04/22 04:22:28;;;;;;;7.80;6.60;;;10.20;99.90;;;;;;5013412;28;20177;-70
2023/04/22 04:24:54;;;;;;;6.67;5.70;;;10.20;99.90;;;;;;5023193;28;20634;-70
2023/04/22 04:27:22;;;;;;;7.87;6.00;;;10.10;99.90;;;;;;5023140;28;20680;-70
2023/04/22 04:29:48;;;;;;;7.60;6.67;;;10.10;99.90;;;;;;5022651;28;20400;-73
2023/04/22 04:32:14;;;;;;;8.70;6.70;;;10.10;99.90;;;;;;5028963;28;20976;-71
2023/04/22 04:34:41;;;;;;;9.03;7.37;;;10.10;99.90;;;;;;5028889;28;20262;-71
2023/04/22 04:37:06;;;;;;;9.27;7.37;;;10.20;99.90;;;;;;5022730;28;20263;-70
2023/04/22 04:39:32;;;;;;;8.13;7.00;;;10.20;99.90;;;;;;5022338;28;20912;-71
2023/04/22 04:41:59;;;;;;;8.43;6.43;;;10.20;99.90;;;;;;5022003;28;20497;-70
2023/04/22 04:44:25;;;;;;;7.30;6.60;;;10.20;99.90;;;;;;5023059;28;20859;-70
2023/04/22 04:46:51;;;;;;;7.87;6.47;;;10.20;99.90;;;;;;5024853;28;20410;-70
2023/04/22 04:49:17;;;;;;;7.37;6.40;;;10.20;99.90;;;;;;5022459;28;20553;-70
2023/04/22 04:51:42;;;;;;;9.00;7.27;;;10.20;99.90;;;;;;5020715;28;20416;-69
2023/04/22 04:54:08;;;;;;;9.80;6.23;;;10.20;99.90;;;;;;5022696;28;20319;-70
2023/04/22 04:56:34;;;;;;;12.70;6.93;;;10.30;99.90;;;;;;5032010;28;20202;-70
2023/04/22 04:58:59;;;;;;;8.30;7.50;;;10.30;99.90;;;;;;5025537;28;20206;-70
2023/04/22 05:01:25;;;;;;;12.20;6.90;;;10.30;99.90;;;;;;5024900;28;20403;-70
2023/04/22 05:03:50;;;;;;;11.00;6.93;;;10.40;99.90;;;;;;5023561;28;20206;-70
2023/04/22 05:06:16;;;;;;;11.43;7.07;;;10.40;99.90;;;;;;5022294;28;20171;-69
2023/04/22 05:08:42;;;;;;;9.60;7.10;;;10.40;99.90;;;;;;5028367;28;20195;-71
2023/04/22 05:11:07;;;;;;;9.37;6.13;;;10.40;99.90;;;;;;5022557;28;20605;-71
2023/04/22 05:13:33;;;;;;;7.43;6.23;;;10.50;99.90;;;;;;5028669;28;20526;-70
2023/04/22 05:15:58;;;;;;;6.53;5.90;;;10.50;99.90;;;;;;5021354;28;20179;-70
2023/04/22 05:18:24;;;;;;;12.40;7.63;;;10.60;99.90;;;;;;5022099;28;20195;-70
2023/04/22 05:20:50;;;;;;;7.23;6.43;;;10.60;99.90;;;;;;5024529;28;20177;-71
2023/04/22 05:23:15;;;;;;;8.00;7.30;;;10.70;99.90;;;;;;5022051;28;20189;-70
2023/04/22 05:25:41;;;;;;;10.90;6.93;;;10.70;99.90;;;;;;5004002;28;20192;-71
2023/04/22 05:28:07;;;;;;;9.10;6.40;;;10.90;99.90;;;;;;4997383;28;20196;-71
2023/04/22 05:30:32;;;;;;;13.63;7.10;;;11.00;99.90;;;;;;5012710;28;20214;-68
2023/04/22 05:32:58;;;;;;;9.13;6.80;;;11.20;99.90;;;;;;5021497;28;20180;-71
2023/04/22 05:35:24;;;;;;;8.53;6.70;;;11.50;99.90;;;;;;5028827;28;20174;-72
2023/04/22 05:37:49;;;;;;;14.30;7.10;;;12.00;99.90;;;;;;5020800;28;20282;-71
2023/04/22 05:40:15;;;;;;;12.00;7.10;;;12.50;99.90;;;;;;5023739;28;20270;-71
2023/04/22 05:42:40;;;;;;;9.43;6.90;;;13.00;99.90;;;;;;5030372;28;20189;-70
2023/04/22 05:45:07;;;;;;;8.30;6.80;;;13.40;99.50;;;;;;5029358;28;20164;-71
2023/04/22 05:47:32;;;;;;;8.77;6.40;;;13.90;99.00;;;;;;5028619;28;20281;-70
2023/04/22 05:49:58;;;;;;;8.33;6.30;;;14.30;98.10;;;;;;5027826;28;20514;-70
2023/04/22 05:52:23;;;;;;;7.60;6.60;;;14.60;97.60;;;;;;5036683;28;20170;-71
2023/04/22 05:54:49;;;;;;;7.50;6.10;;;15.10;96.60;;;;;;5027054;28;20615;-71
2023/04/22 05:57:15;;;;;;;8.87;6.00;;;15.60;95.80;;;;;;5036516;28;20171;-71
2023/04/22 05:59:40;;;;;;;9.97;6.80;;;15.70;95.10;;;;;;5028369;28;20208;-70
2023/04/22 06:02:06;;;;;;;10.13;6.97;;;15.90;94.60;;;;;;5028840;28;20177;-71
2023/04/22 06:04:31;;;;;;;7.30;6.60;;;15.40;94.40;;;;;;5028639;28;20241;-70
2023/04/22 06:06:57;;;;;;;9.70;7.17;;;15.50;94.30;;;;;;5030585;28;20525;-69
2023/04/22 06:09:23;;;;;;;10.40;6.80;;;15.80;94.10;;;;;;5031271;28;20575;-71
2023/04/22 06:11:48;;;;;;;7.63;6.90;;;16.10;93.80;;;;;;5027825;28;20188;-71
2023/04/22 06:14:14;;;;;;;9.10;6.87;;;16.50;93.60;;;;;;5037044;28;20206;-72
2023/04/22 06:16:40;;;;;;;8.40;7.47;;;16.80;93.10;;;;;;5032216;28;20198;-71
2023/04/22 06:19:06;;;;;;;8.40;7.13;;;17.00;92.10;;;;;;5028555;28;20571;-71
2023/04/22 06:21:32;;;;;;;7.60;6.80;;;16.90;92.80;;;;;;5028545;28;20236;-71
2023/04/22 06:24:01;;;;;;;7.80;7.03;;;17.20;92.40;;;;;;5027802;28;20787;-71
2023/04/22 06:26:27;;;;;;;9.80;7.23;;;16.80;92.50;;;;;;5026657;28;20416;-72
2023/04/22 06:28:52;;;;;;;7.03;6.43;;;17.10;91.80;;;;;;5015105;28;20590;-71
2023/04/22 06:31:18;;;;;;;8.30;6.00;;;17.40;92.30;;;;;;5025117;28;20178;-70
2023/04/22 06:33:45;;;;;;;11.60;6.80;;;17.60;91.60;;;;;;5025688;28;20179;-71
2023/04/22 06:36:12;;;;;;;9.43;7.90;;;17.80;91.50;;;;;;5013069;28;20570;-71
2023/04/22 06:38:38;;;;;;;7.60;6.80;;;17.50;91.90;;;;;;5031947;28;20848;-70
2023/04/22 06:41:04;;;;;;;7.87;6.53;;;18.20;91.20;;;;;;5017969;28;20467;-71
2023/04/22 06:43:29;;;;;;;7.97;7.10;;;18.80;90.50;;;;;;5010924;28;20180;-70
2023/04/22 06:45:55;;;;;;;7.20;6.30;;;19.50;89.00;;;;;;5033727;28;20170;-70
2023/04/22 06:48:20;;;;;;;7.33;6.63;;;19.20;87.90;;;;;;5025514;28;20696;-70
2023/04/22 06:50:46;;;;;;;8.90;6.93;;;19.30;89.20;;;;;;5034223;28;20176;-72
2023/04/22 06:53:12;;;;;;;12.27;6.93;;;19.50;88.40;;;;;;5029147;28;20612;-71
2023/04/22 06:55:37;;;;;;;8.27;6.50;;;18.70;87.90;;;;;;5022883;28;20186;-73
2023/04/22 06:58:03;;;;;;;7.90;6.97;;;19.30;90.30;;;;;;5029928;28;20534;-73
2023/04/22 07:00:29;;;;;;;7.03;6.13;;;20.50;85.60;;;;;;5022742;28;20187;-73
2023/04/22 07:02:54;;;;;;;7.53;6.33;;;19.80;86.70;;;;;;5030708;28;20186;-71
2023/04/22 07:05:20;;;;;;;7.60;6.90;;;18.90;87.90;;;;;;5022343;28;20214;-74
2023/04/22 07:07:46;;;;;;;7.77;6.87;;;19.60;87.30;;;;;;5012672;28;20555;-71
2023/04/22 07:10:14;;;;;;;7.50;6.70;;;20.70;84.00;;;;;;5027454;28;20251;-72
2023/04/22 07:12:40;;;;;;;6.53;5.83;;;20.90;83.80;;;;;;5022311;28;20422;-72
2023/04/22 07:15:06;;;;;;;8.27;7.47;;;20.60;80.60;;;;;;5028907;28;20412;-71
2023/04/22 07:17:32;;;;;;;7.90;7.00;;;20.60;80.40;;;;;;5021891;28;20289;-72
2023/04/22 07:19:58;;;;;;;9.67;7.10;;;21.40;80.40;;;;;;5030096;28;20739;-72
2023/04/22 07:22:24;;;;;;;8.33;6.80;;;20.80;80.70;;;;;;5021962;28;20415;-72
2023/04/22 07:24:49;;;;;;;13.63;6.20;;;20.50;84.10;;;;;;5022943;28;20187;-72
2023/04/22 07:27:15;;;;;;;6.90;6.20;;;20.60;82.80;;;;;;5024955;28;20178;-70
2023/04/22 07:29:41;;;;;;;8.70;7.10;;;20.30;87.10;;;;;;5024689;28;20176;-72
2023/04/22 07:32:06;;;;;;;7.60;6.90;;;21.50;84.40;;;;;;5024987;28;20177;-72
2023/04/22 07:34:32;;;;;;;7.10;6.03;;;21.80;81.00;;;;;;5031949;28;20179;-72
2023/04/22 07:36:58;;;;;;;7.33;6.30;;;21.60;80.90;;;;;;5024852;28;20592;-73
2023/04/22 07:39:24;;;;;;;6.83;5.90;;;22.00;78.90;;;;;;5024537;28;20207;-72
2023/04/22 07:41:50;;;;;;;9.47;6.37;;;20.90;79.20;;;;;;5023730;28;20625;-73
2023/04/22 07:44:20;;;;;;;7.70;5.97;;;21.00;82.70;;;;;;5024557;28;20774;-72
2023/04/22 07:46:46;;;;;;;8.33;6.70;;;21.70;77.80;;;;;;5025011;28;20408;-72
2023/04/22 07:49:12;;;;;;;6.60;6.00;;;21.30;85.60;;;;;;5029940;28;20457;-72
2023/04/22 07:51:39;;;;;;;6.73;5.50;;;21.80;79.80;;;;;;5030522;28;20418;-71
2023/04/22 07:54:05;;;;;;;9.10;7.00;;;23.00;76.20;;;;;;5028806;28;20494;-70
2023/04/22 07:56:30;;;;;;;7.20;5.50;;;22.80;76.10;;;;;;5024595;28;20468;-71
2023/04/22 07:58:56;;;;;;;6.47;5.83;;;22.30;79.30;;;;;;5023278;28;20211;-71
2023/04/22 08:01:22;;;;;;;7.50;6.23;;;22.60;80.90;;;;;;5012451;28;20180;-73
2023/04/22 08:03:48;;;;;;;6.27;5.67;;;22.70;77.70;;;;;;5009215;28;20191;-72
2023/04/22 08:06:14;;;;;;;7.43;6.83;;;24.00;71.30;;;;;;5029130;28;20496;-73
2023/04/22 08:08:40;;;;;;;6.63;6.03;;;23.30;71.20;;;;;;5029986;28;20273;-71
2023/04/22 08:11:06;;;;;;;7.87;6.87;;;23.30;73.90;;;;;;5027827;28;20233;-72
2023/04/22 08:13:32;;;;;;;6.57;5.97;;;23.40;71.00;;;;;;5023790;28;20237;-72
2023/04/22 08:16:01;;;;;;;6.80;6.10;;;24.10;70.40;;;;;;5003884;28;20415;-70
2023/04/22 08:18:27;;;;;;;7.83;6.83;;;23.50;72.20;;;;;;5023674;28;20583;-71
2023/04/22 08:20:53;;;;;;;7.63;6.83;;;22.70;74.60;;;;;;5025821;28;20449;-69
2023/04/22 08:23:20;;;;;;;7.20;6.60;;;22.70;77.20;;;;;;5023889;28;20865;-71
2023/04/22 08:25:46;;;;;;;8.83;6.63;;;23.70;71.60;;;;;;5022696;28;20183;-70
2023/04/22 08:28:11;;;;;;;6.73;6.00;;;24.70;71.70;;;;;;5024116;28;20530;-71
2023/04/22 08:30:37;;;;;;;7.10;6.00;;;24.90;67.90;;;;;;5023315;28;20959;-72
2023/04/22 08:33:03;;;;;;;10.00;6.13;;;23.90;70.90;;;;;;5019986;28;20183;-71
2023/04/22 08:35:28;;;;;;;7.60;6.90;;;23.70;70.70;;;;;;5025219;28;20179;-71
2023/04/22 08:37:54;;;;;;;7.23;5.20;;;24.20;68.60;;;;;;5020997;28;20199;-72
2023/04/22 08:40:20;;;;;;;7.23;6.53;;;24.00;66.80;;;;;;5025788;28;20251;-70
2023/04/22 08:42:46;;;;;;;8.30;6.40;;;24.10;67.80;;;;;;5022517;28;20417;-70
2023/04/22 08:45:13;;;;;;;7.30;6.50;;;24.20;67.50;;;;;;5024269;28;20179;-71
2023/04/22 08:47:39;;;;;;;6.90;5.97;;;25.10;65.90;;;;;;5008305;28;20979;-72
2023/04/22 08:50:06;;;;;;;11.13;7.23;;;25.00;65.90;;;;;;5024717;28;20414;-71
2023/04/22 08:52:31;;;;;;;8.70;7.43;;;24.90;66.40;;;;;;5029428;28;20437;-72
2023/04/22 08:54:58;;;;;;;5.83;5.23;;;24.90;66.10;;;;;;5024396;28;20467;-71
2023/04/22 08:57:24;;;;;;;6.83;6.23;;;24.20;66.10;;;;;;5024859;28;20229;-71
2023/04/22 08:59:50;;;;;;;9.60;5.97;;;24.90;67.10;;;;;;5025289;28;20461;-71
2023/04/22 09:02:19;;;;;;;7.10;5.40;;;24.60;66.30;;;;;;5025973;28;20756;-72
2023/04/22 09:04:47;;;;;;;10.33;6.90;;;24.80;64.20;;;;;;5023963;28;20417;-72
2023/04/22 09:07:21;;;;;;;6.70;5.70;;;24.60;65.10;;;;;;5029695;28;20460;-70
2023/04/22 09:09:47;;;;;;;6.30;5.70;;;25.10;63.90;;;;;;5029483;28;20449;-70
2023/04/22 09:12:13;;;;;;;8.57;6.90;;;24.80;65.00;;;;;;5020252;28;20477;-71
2023/04/22 09:14:39;;;;;;;7.20;5.90;;;25.00;64.50;;;;;;5027527;28;20748;-70
2023/04/22 09:17:04;;;;;;;7.03;6.30;;;25.80;62.10;;;;;;5019883;28;20180;-73
2023/04/22 09:19:30;;;;;;;8.80;5.40;;;25.50;61.30;;;;;;5026891;28;20274;-72
2023/04/22 09:21:59;;;;;;;7.70;6.20;;;25.30;63.90;;;;;;5021009;28;20175;-72
2023/04/22 09:24:24;;;;;;;7.03;6.07;;;25.70;63.30;;;;;;4997773;28;20180;-72
2023/04/22 09:26:50;;;;;;;6.53;5.93;;;24.90;64.40;;;;;;5026552;28;20467;-71
2023/04/22 09:29:16;;;;;;;5.97;5.30;;;24.10;66.10;;;;;;5025558;28;20207;-71
2023/04/22 09:31:48;;;;;;;9.10;5.40;;;25.10;65.20;;;;;;5022659;28;20172;-72
2023/04/22 09:34:14;;;;;;;7.23;5.53;;;26.00;61.30;;;;;;5022797;28;20417;-72
2023/04/22 09:36:42;;;;;;;7.00;5.03;;;26.30;61.50;;;;;;5025276;28;20430;-71
2023/04/22 09:39:07;;;;;;;5.17;4.67;;;26.00;60.60;;;;;;5022651;28;20621;-71
2023/04/22 09:41:35;;;;;;;7.63;5.33;;;25.60;61.50;;;;;;5022244;28;20498;-72
2023/04/22 09:44:02;;;;;;;8.53;5.10;;;26.00;59.90;;;;;;5022047;28;20167;-70
2023/04/22 09:46:29;;;;;;;6.73;5.20;;;25.60;60.30;;;;;;5025048;28;20414;-70
2023/04/22 09:48:58;;;;;;;6.53;5.87;;;25.60;62.30;;;;;;5022438;28;20455;-73
2023/04/22 09:51:24;;;;;;;7.20;5.97;;;25.00;62.50;;;;;;5022856;28;20421;-72
2023/04/22 09:54:10;;;;;;;5.13;4.70;;;25.50;60.90;;;;;;5020768;28;20446;-71
2023/04/22 09:56:53;;;;;;;7.00;4.90;;;25.20;61.40;;;;;;5022732;28;20417;-71
2023/04/22 09:59:23;;;;;;;5.70;5.00;;;24.50;62.00;;;;;;5023936;28;20469;-71
2023/04/22 10:01:52;;;;;;;6.50;4.80;;;24.00;63.80;;;;;;5022572;28;20414;-70
2023/04/22 10:04:20;;;;;;;7.77;5.40;;;23.00;68.50;;;;;;5022678;28;20671;-71
2023/04/22 10:06:49;;;;;;;5.27;4.80;;;22.80;66.70;;;;;;5027455;28;20412;-71
2023/04/22 10:09:20;;;;;;;5.93;4.80;;;22.50;65.70;;;;;;5032338;28;21049;-70
2023/04/22 10:11:47;;;;;;;5.20;4.70;;;22.50;67.90;;;;;;5022320;28;20426;-71
2023/04/22 10:14:15;;;;;;;8.63;5.27;;;22.50;66.50;;;;;;5029484;28;20429;-70
2023/04/22 10:16:44;;;;;;;5.97;4.97;;;22.30;67.00;;;;;;5022074;28;20414;-71
2023/04/22 10:19:15;;;;;;;6.80;4.83;;;22.40;66.30;;;;;;5028435;28;20800;-70
2023/04/22 10:21:43;;;;;;;5.60;4.77;;;22.40;67.60;;;;;;5022269;28;20421;-71
2023/04/22 10:24:16;;;;;;;7.40;5.13;;;22.10;68.70;;;;;;5019184;28;20930;-71
2023/04/22 10:26:58;;;;;;;6.00;5.17;;;22.20;68.60;;;;;;5022446;28;20409;-70
2023/04/22 10:29:26;;;;;;;5.30;4.80;;;22.10;66.80;;;;;;5026039;28;20911;-71
2023/04/22 10:32:00;;;;;;;6.23;4.27;;;22.20;67.40;;;;;;5024233;28;20476;-73
2023/04/22 10:34:26;;;;;;;6.87;5.43;;;22.30;63.10;;;;;;5033233;28;20420;-70
2023/04/22 10:37:04;;;;;;;7.90;4.33;;;22.30;64.70;;;;;;5024300;28;20412;-72
2023/04/22 10:39:30;;;;;;;7.93;4.40;;;22.30;65.70;;;;;;5008254;28;20240;-72
2023/04/22 10:42:18;;;;;;;4.60;4.20;;;22.20;63.10;;;;;;5026012;28;20857;-71
2023/04/22 10:44:54;;;;;;;5.30;4.30;;;22.00;62.30;;;;;;5031498;28;20186;-71
2023/04/22 10:47:27;;;;;;;7.00;4.63;;;21.70;63.00;;;;;;5025888;28;20426;-71
2023/04/22 10:50:17;;;;;;;5.67;5.17;;;21.80;64.40;;;;;;5023933;28;20424;-71
2023/04/22 10:52:47;;;;;;;6.20;4.73;;;22.00;63.80;;;;;;5028739;28;20416;-72
2023/04/22 10:55:13;;;;;;;6.17;5.57;;;22.10;65.00;;;;;;5026210;28;20410;-72
2023/04/22 10:57:44;;;;;;;12.00;4.40;;;22.10;66.10;;;;;;5029960;28;20960;-71
2023/04/22 11:00:23;;;;;;;6.60;4.13;;;22.20;65.60;;;;;;5021976;28;20413;-71
2023/04/22 11:02:53;;;;;;;5.53;5.00;;;22.40;64.20;;;;;;5030041;28;20407;-72
2023/04/22 11:05:24;;;;;;;6.20;4.53;;;22.30;63.00;;;;;;5021729;28;20775;-72
2023/04/22 11:08:00;;;;;;;5.17;4.67;;;21.80;64.10;;;;;;5023331;28;20437;-70
2023/04/22 11:10:30;;;;;;;6.40;4.60;;;22.00;65.80;;;;;;5025207;28;20407;-71
2023/04/22 11:12:56;;;;;;;5.27;4.33;;;22.00;64.90;;;;;;5024029;28;20475;-71
2023/04/22 11:15:22;;;;;;;5.67;5.13;;;21.90;63.30;;;;;;5026217;28;20413;-71
2023/04/22 11:17:52;;;;;;;8.20;5.20;;;21.90;63.90;;;;;;5028559;28;20881;-71
2023/04/22 11:20:18;;;;;;;9.67;3.77;;;22.00;64.00;;;;;;5027877;28;20269;-71
2023/04/22 11:22:55;;;;;;;4.30;4.00;;;22.20;62.20;;;;;;5024499;28;20417;-72
2023/04/22 11:25:21;;;;;;;5.13;4.63;;;22.00;62.80;;;;;;5024991;28;20921;-72
2023/04/22 11:27:47;;;;;;;8.70;5.40;;;22.00;62.60;;;;;;5030286;28;20437;-71
2023/04/22 11:30:18;;;;;;;5.37;4.80;;;21.90;62.10;;;;;;5025021;28;20419;-71
2023/04/22 11:32:46;;;;;;;5.23;4.73;;;22.00;63.40;;;;;;5006292;28;20538;-70
2023/04/22 11:35:14;;;;;;;5.17;4.67;;;22.00;62.70;;;;;;5031055;28;20440;-72
2023/04/22 11:37:41;;;;;;;4.90;4.40;;;21.80;60.30;;;;;;5024344;28;20432;-71
2023/04/22 11:40:31;;;;;;;5.73;4.37;;;21.90;59.90;;;;;;5024177;28;20566;-72
2023/04/22 11:42:59;;;;;;;7.20;4.53;;;22.00;60.00;;;;;;5021797;28;20429;-72
2023/04/22 11:45:25;;;;;;;4.77;4.23;;;22.10;60.90;;;;;;5032773;28;20441;-71
2023/04/22 11:47:52;;;;;;;5.80;4.00;;;22.00;59.60;;;;;;5022558;28;20959;-72
2023/04/22 11:50:22;;;;;;;4.80;4.30;;;22.00;60.60;;;;;;5025913;28;20975;-71
2023/04/22 11:52:55;;;;;;;4.93;3.97;;;22.00;62.40;;;;;;5027415;28;20425;-72
2023/04/22 11:55:23;;;;;;;5.10;4.13;;;21.90;63.40;;;;;;5020754;28;20448;-72
2023/04/22 11:57:57;;;;;;;6.43;4.27;;;22.00;61.70;;;;;;5029495;28;20445;-71
2023/04/22 12:00:28;;;;;;;4.10;3.80;;;22.10;61.10;;;;;;5024401;28;20903;-71
2023/04/22 12:02:59;;;;;;;7.60;4.57;;;22.20;60.00;;;;;;5028986;28;20884;-70
2023/04/22 12:05:35;;;;;;;5.23;3.97;;;22.30;59.90;;;;;;5020719;28;20485;-71
2023/04/22 12:08:11;;;;;;;4.43;4.03;;;22.20;58.90;;;;;;5024031;28;20447;-71
2023/04/22 12:10:45;;;;;;;5.03;4.10;;;22.20;59.80;;;;;;5024950;28;20426;-72
2023/04/22 12:13:22;;;;;;;5.53;4.80;;;22.40;59.30;;;;;;5011581;28;20437;-71
2023/04/22 12:15:52;;;;;;;4.67;4.27;;;22.50;58.90;;;;;;5026069;28;20409;-71
2023/04/22 12:18:31;;;;;;;7.50;4.80;;;22.40;59.90;;;;;;5029582;28;20460;-71
2023/04/22 12:21:11;;;;;;;7.60;4.80;;;22.30;61.40;;;;;;5023965;28;20413;-71
2023/04/22 12:23:59;;;;;;;5.13;4.63;;;22.40;61.20;;;;;;5024746;28;20431;-71
2023/04/22 12:26:26;;;;;;;4.50;4.10;;;22.30;61.30;;;;;;5022798;28;20512;-72
2023/04/22 12:28:52;;;;;;;6.63;4.40;;;22.50;61.10;;;;;;5029951;28;20433;-71
2023/04/22 12:31:18;;;;;;;5.57;4.50;;;22.50;59.30;;;;;;5020455;28;20496;-71
2023/04/22 12:33:45;;;;;;;4.97;4.30;;;22.60;59.30;;;;;;5021026;28;20491;-73
2023/04/22 12:36:11;;;;;;;5.27;4.77;;;22.50;59.40;;;;;;5027446;28;20829;-71
2023/04/22 12:38:37;;;;;;;8.33;4.37;;;22.50;60.20;;;;;;5020175;28;20516;-71
2023/04/22 12:41:04;;;;;;;4.00;3.70;;;22.50;60.80;;;;;;5027404;28;20233;-70
2023/04/22 12:43:32;;;;;;;6.23;4.67;;;22.60;60.70;;;;;;5023409;28;20904;-72
2023/04/22 12:45:58;;;;;;;4.73;4.33;;;22.60;60.60;;;;;;5028314;28;20413;-71